createdAt,value
2017-10-13T01:36:41.487Z,10.09
2017-10-13T01:36:42.050Z,10.09
2017-10-13T01:36:42.650Z,10.14
2017-10-13T01:36:43.250Z,10.07
2017-10-13T01:36:43.850Z,10.09
2017-10-13T01:36:44.450Z,10.14
2017-10-13T01:36:45.049Z,10.10
2017-10-13T01:36:45.650Z,10.04
2017-10-13T01:37:39.129Z,10.09
2017-10-13T01:37:39.703Z,10.09
2017-10-13T01:37:40.304Z,10.09
2017-10-13T01:37:40.903Z,10.06
2017-10-13T01:37:41.527Z,10.07
2017-10-13T01:37:42.102Z,10.06
2017-10-13T01:37:42.705Z,10.06
2017-10-13T01:37:43.303Z,10.06
2017-10-13T01:38:37.805Z,10.09
2017-10-13T01:38:38.383Z,10.10
2017-10-13T01:38:38.980Z,10.09
2017-10-13T01:38:39.580Z,10.06
2017-10-13T01:38:40.178Z,10.10
2017-10-13T01:38:40.778Z,10.09
2017-10-13T01:38:41.379Z,10.07
2017-10-13T01:38:41.977Z,10.09
2017-10-13T01:39:36.508Z,10.03
2017-10-13T01:39:37.061Z,10.10
2017-10-13T01:39:37.656Z,10.01
2017-10-13T01:39:38.256Z,10.12
2017-10-13T01:39:38.855Z,10.06
2017-10-13T01:39:39.454Z,10.12
2017-10-13T01:39:40.054Z,10.06
2017-10-13T01:39:40.655Z,10.06
2017-10-13T01:40:35.232Z,10.00
2017-10-13T01:40:35.735Z,10.01
2017-10-13T01:40:36.332Z,10.07
2017-10-13T01:40:36.932Z,10.01
2017-10-13T01:40:37.531Z,10.06
2017-10-13T01:40:38.130Z,10.09
2017-10-13T01:40:38.731Z,9.97
2017-10-13T01:40:39.331Z,10.04
2017-10-13T01:41:33.833Z,9.97
2017-10-13T01:41:34.410Z,10.09
2017-10-13T01:41:35.008Z,10.03
2017-10-13T01:41:35.608Z,10.07
2017-10-13T01:41:36.208Z,10.07
2017-10-13T01:41:36.808Z,10.10
2017-10-13T01:41:37.407Z,10.07
2017-10-13T01:41:38.007Z,10.06
2017-10-13T01:42:32.510Z,10.00
2017-10-13T01:42:33.085Z,10.06
2017-10-13T01:42:33.685Z,10.06
2017-10-13T01:42:34.289Z,10.07
2017-10-13T01:42:34.900Z,10.06
2017-10-13T01:42:35.484Z,10.06
2017-10-13T01:42:36.088Z,9.97
2017-10-13T01:42:36.684Z,10.06
2017-10-13T01:43:31.186Z,9.99
2017-10-13T01:43:31.762Z,10.04
2017-10-13T01:43:32.363Z,10.01
2017-10-13T01:43:32.960Z,10.04
2017-10-13T01:43:33.560Z,10.09
2017-10-13T01:43:34.160Z,10.03
2017-10-13T01:43:34.762Z,9.99
2017-10-13T01:43:35.360Z,10.06
2017-10-13T01:44:28.838Z,10.01
2017-10-13T01:44:29.413Z,10.04
2017-10-13T01:44:30.014Z,10.01
2017-10-13T01:44:30.614Z,9.96
2017-10-13T01:44:31.212Z,10.00
2017-10-13T01:44:31.813Z,9.97
2017-10-13T01:44:32.412Z,10.04
2017-10-13T01:44:33.012Z,9.99
2017-10-13T01:45:27.513Z,10.04
2017-10-13T01:45:28.089Z,10.01
2017-10-13T01:45:28.687Z,10.01
2017-10-13T01:45:29.288Z,9.99
2017-10-13T01:45:29.888Z,10.07
2017-10-13T01:45:30.488Z,10.06
2017-10-13T01:45:31.087Z,10.10
2017-10-13T01:45:31.688Z,10.07
2017-10-13T01:46:25.167Z,10.06
2017-10-13T01:46:25.740Z,10.10
2017-10-13T01:46:26.339Z,10.09
2017-10-13T01:46:26.943Z,10.09
2017-10-13T01:46:27.540Z,10.01
2017-10-13T01:46:28.140Z,10.04
2017-10-13T01:46:28.741Z,10.09
2017-10-13T01:46:29.339Z,10.07
2017-10-13T01:47:22.822Z,10.09
2017-10-13T01:47:23.393Z,10.09
2017-10-13T01:47:23.992Z,10.04
2017-10-13T01:47:24.591Z,10.09
2017-10-13T01:47:25.193Z,10.10
2017-10-13T01:47:25.792Z,10.09
2017-10-13T01:47:26.394Z,10.04
2017-10-13T01:47:26.992Z,10.06
2017-10-13T01:48:20.469Z,10.09
2017-10-13T01:48:21.044Z,10.07
2017-10-13T01:48:21.644Z,10.10
2017-10-13T01:48:22.244Z,10.07
2017-10-13T01:48:22.844Z,10.12
2017-10-13T01:48:23.442Z,10.07
2017-10-13T01:48:24.049Z,10.12
2017-10-13T01:48:24.643Z,10.19
2017-10-13T01:49:18.121Z,10.14
2017-10-13T01:49:18.698Z,10.10
2017-10-13T01:49:19.295Z,10.10
2017-10-13T01:49:19.896Z,10.06
2017-10-13T01:49:20.496Z,10.14
2017-10-13T01:49:21.095Z,10.17
2017-10-13T01:49:21.697Z,10.07
2017-10-13T01:49:22.296Z,10.14
2017-10-13T01:50:15.782Z,10.12
2017-10-13T01:50:16.346Z,10.17
2017-10-13T01:50:16.947Z,10.21
2017-10-13T01:50:17.548Z,10.14
2017-10-13T01:50:18.158Z,10.19
2017-10-13T01:50:18.748Z,10.18
2017-10-13T01:50:19.348Z,10.17
2017-10-13T01:50:19.948Z,10.15
2017-10-13T01:51:14.449Z,10.19
2017-10-13T01:51:15.022Z,10.18
2017-10-13T01:51:15.623Z,10.24
2017-10-13T01:51:16.221Z,10.22
2017-10-13T01:51:16.822Z,10.21
2017-10-13T01:51:17.421Z,10.24
2017-10-13T01:51:18.022Z,10.21
2017-10-13T01:51:18.621Z,10.17
2017-10-13T01:52:13.131Z,10.24
2017-10-13T01:52:13.745Z,10.32
2017-10-13T01:52:14.303Z,10.26
2017-10-13T01:52:14.899Z,10.21
2017-10-13T01:52:15.501Z,10.25
2017-10-13T01:52:16.099Z,10.28
2017-10-13T01:52:16.698Z,10.28
2017-10-13T01:52:17.302Z,10.28
2017-10-13T01:53:10.785Z,10.30
2017-10-13T01:53:11.358Z,10.34
2017-10-13T01:53:11.950Z,10.32
2017-10-13T01:53:12.550Z,10.32
2017-10-13T01:53:13.150Z,10.36
2017-10-13T01:53:13.750Z,10.32
2017-10-13T01:53:14.350Z,10.32
2017-10-13T01:53:14.949Z,10.33
2017-10-13T01:54:09.453Z,10.32
2017-10-13T01:54:10.027Z,10.36
2017-10-13T01:54:10.644Z,10.36
2017-10-13T01:54:11.226Z,10.36
2017-10-13T01:54:11.826Z,10.33
2017-10-13T01:54:12.426Z,10.33
2017-10-13T01:54:13.025Z,10.40
2017-10-13T01:54:13.625Z,10.32
2017-10-13T01:55:07.615Z,10.37
2017-10-13T01:55:08.195Z,10.36
2017-10-13T01:55:08.790Z,10.39
2017-10-13T01:55:09.393Z,10.37
2017-10-13T01:55:09.990Z,10.40
2017-10-13T01:55:10.590Z,10.37
2017-10-13T01:55:11.188Z,10.34
2017-10-13T01:56:04.757Z,10.36
2017-10-13T01:56:05.332Z,10.37
2017-10-13T01:56:05.931Z,10.42
2017-10-13T01:56:06.529Z,10.42
2017-10-13T01:56:07.129Z,10.42
2017-10-13T01:56:07.730Z,10.42
2017-10-13T01:56:08.329Z,10.33
2017-10-13T01:56:08.929Z,10.42
2017-10-13T01:57:03.432Z,10.42
2017-10-13T01:57:04.005Z,10.40
2017-10-13T01:57:04.608Z,10.37
2017-10-13T01:57:05.205Z,10.42
2017-10-13T01:57:05.805Z,10.46
2017-10-13T01:57:06.404Z,10.46
2017-10-13T01:57:07.004Z,10.46
2017-10-13T01:57:07.606Z,10.44
2017-10-13T01:58:02.107Z,10.37
2017-10-13T01:58:02.679Z,10.40
2017-10-13T01:58:03.281Z,10.51
2017-10-13T01:58:03.881Z,10.47
2017-10-13T01:58:04.479Z,10.47
2017-10-13T01:58:05.080Z,10.39
2017-10-13T01:58:05.683Z,10.39
2017-10-13T01:58:06.279Z,10.36
2017-10-13T01:59:00.785Z,10.40
2017-10-13T01:59:01.357Z,10.42
2017-10-13T01:59:01.962Z,10.43
2017-10-13T01:59:02.556Z,10.37
2017-10-13T01:59:03.156Z,10.40
2017-10-13T01:59:03.756Z,10.43
2017-10-13T01:59:04.356Z,10.40
2017-10-13T01:59:04.955Z,10.47
2017-10-13T01:59:58.435Z,10.43
2017-10-13T01:59:59.009Z,10.43
2017-10-13T01:59:59.610Z,10.42
2017-10-13T02:00:00.209Z,10.40
2017-10-13T02:00:00.808Z,10.46
2017-10-13T02:00:01.408Z,10.53
2017-10-13T02:00:02.008Z,10.40
2017-10-13T02:00:02.612Z,10.43
2017-10-13T02:00:57.111Z,10.52
2017-10-13T02:00:57.684Z,10.52
2017-10-13T02:00:58.284Z,10.46
2017-10-13T02:00:58.883Z,10.56
2017-10-13T02:00:59.484Z,10.51
2017-10-13T02:01:00.085Z,10.44
2017-10-13T02:01:00.685Z,10.53
2017-10-13T02:01:01.283Z,10.47
2017-10-13T02:01:55.787Z,10.56
2017-10-13T02:01:56.360Z,10.59
2017-10-13T02:01:56.959Z,10.58
2017-10-13T02:01:57.560Z,10.59
2017-10-13T02:01:58.159Z,10.47
2017-10-13T02:01:58.759Z,10.58
2017-10-13T02:01:59.359Z,10.59
2017-10-13T02:01:59.958Z,10.59
2017-10-13T02:02:53.949Z,10.62
2017-10-13T02:02:54.531Z,10.56
2017-10-13T02:02:55.123Z,10.58
2017-10-13T02:02:55.723Z,10.59
2017-10-13T02:02:56.323Z,10.58
2017-10-13T02:02:56.923Z,10.53
2017-10-13T02:02:57.522Z,10.56
2017-10-13T02:03:51.090Z,10.58
2017-10-13T02:03:51.665Z,10.56
2017-10-13T02:03:52.268Z,10.58
2017-10-13T02:03:52.864Z,10.60
2017-10-13T02:03:53.464Z,10.55
2017-10-13T02:03:54.064Z,10.59
2017-10-13T02:03:54.662Z,10.58
2017-10-13T02:03:55.263Z,10.65
2017-10-13T02:04:49.765Z,10.59
2017-10-13T02:04:50.339Z,10.63
2017-10-13T02:04:50.939Z,10.60
2017-10-13T02:04:51.542Z,10.59
2017-10-13T02:04:52.138Z,10.59
2017-10-13T02:04:52.737Z,10.59
2017-10-13T02:04:53.338Z,10.66
2017-10-13T02:04:53.938Z,10.58
2017-10-13T02:05:48.445Z,10.55
2017-10-13T02:05:49.014Z,10.62
2017-10-13T02:05:49.617Z,10.53
2017-10-13T02:05:50.233Z,10.56
2017-10-13T02:05:50.814Z,10.58
2017-10-13T02:05:51.412Z,10.62
2017-10-13T02:05:52.013Z,10.62
2017-10-13T02:05:52.614Z,10.60
2017-10-13T02:06:46.092Z,10.55
2017-10-13T02:06:46.666Z,10.62
2017-10-13T02:06:47.268Z,10.55
2017-10-13T02:06:47.866Z,10.58
2017-10-13T02:06:48.466Z,10.68
2017-10-13T02:06:49.066Z,10.53
2017-10-13T02:06:49.665Z,10.59
2017-10-13T02:06:50.266Z,10.55
2017-10-13T02:07:43.743Z,10.56
2017-10-13T02:07:44.318Z,10.59
2017-10-13T02:07:44.918Z,10.62
2017-10-13T02:07:45.520Z,10.60
2017-10-13T02:07:46.118Z,10.65
2017-10-13T02:07:46.719Z,10.58
2017-10-13T02:07:47.319Z,10.59
2017-10-13T02:07:47.918Z,10.60
2017-10-13T02:08:42.420Z,10.60
2017-10-13T02:08:42.993Z,10.62
2017-10-13T02:08:43.595Z,10.63
2017-10-13T02:08:44.192Z,10.56
2017-10-13T02:08:44.793Z,10.70
2017-10-13T02:08:45.393Z,10.63
2017-10-13T02:08:45.993Z,10.55
2017-10-13T02:08:46.593Z,10.55
2017-10-13T02:09:41.096Z,10.70
2017-10-13T02:09:41.671Z,10.62
2017-10-13T02:09:42.271Z,10.60
2017-10-13T02:09:42.869Z,10.66
2017-10-13T02:09:43.469Z,10.71
2017-10-13T02:09:44.070Z,10.66
2017-10-13T02:09:44.668Z,10.62
2017-10-13T02:09:45.268Z,10.65
2017-10-13T02:10:38.746Z,10.62
2017-10-13T02:10:39.321Z,10.66
2017-10-13T02:10:39.922Z,10.68
2017-10-13T02:10:40.527Z,10.66
2017-10-13T02:10:41.125Z,10.63
2017-10-13T02:10:41.720Z,10.65
2017-10-13T02:10:42.320Z,10.65
2017-10-13T02:10:42.920Z,10.71
2017-10-13T02:11:36.401Z,10.65
2017-10-13T02:11:36.971Z,10.68
2017-10-13T02:11:37.571Z,10.73
2017-10-13T02:11:38.172Z,10.66
2017-10-13T02:11:38.772Z,10.74
2017-10-13T02:11:39.371Z,10.68
2017-10-13T02:11:39.974Z,10.65
2017-10-13T02:11:40.571Z,10.71
2017-10-13T02:12:35.075Z,10.66
2017-10-13T02:12:35.648Z,10.66
2017-10-13T02:12:36.248Z,10.68
2017-10-13T02:12:36.849Z,10.73
2017-10-13T02:12:37.447Z,10.71
2017-10-13T02:12:38.048Z,10.65
2017-10-13T02:12:38.647Z,10.74
2017-10-13T02:12:39.248Z,10.73
2017-10-13T02:13:32.726Z,10.65
2017-10-13T02:13:33.300Z,10.74
2017-10-13T02:13:33.900Z,10.65
2017-10-13T02:13:34.500Z,10.71
2017-10-13T02:13:35.099Z,10.74
2017-10-13T02:13:35.700Z,10.71
2017-10-13T02:13:36.299Z,10.78
2017-10-13T02:13:36.902Z,10.71
2017-10-13T02:14:31.402Z,10.68
2017-10-13T02:14:31.974Z,10.71
2017-10-13T02:14:32.575Z,10.66
2017-10-13T02:14:33.174Z,10.73
2017-10-13T02:14:33.774Z,10.65
2017-10-13T02:14:34.373Z,10.66
2017-10-13T02:14:34.974Z,10.71
2017-10-13T02:14:35.573Z,10.74
2017-10-13T02:15:41.760Z,10.73
2017-10-13T02:15:42.325Z,10.74
2017-10-13T02:15:42.925Z,10.73
2017-10-13T02:15:43.525Z,10.68
2017-10-13T02:15:44.126Z,10.74
2017-10-13T02:15:44.725Z,10.71
2017-10-13T02:15:45.324Z,10.76
2017-10-13T02:15:45.927Z,10.70
2017-10-13T02:16:39.401Z,10.66
2017-10-13T02:16:39.978Z,10.74
2017-10-13T02:16:40.576Z,10.73
2017-10-13T02:16:41.178Z,10.77
2017-10-13T02:16:41.777Z,10.71
2017-10-13T02:16:42.377Z,10.74
2017-10-13T02:16:42.977Z,10.73
2017-10-13T02:16:43.576Z,10.73
2017-10-13T02:17:37.054Z,10.71
2017-10-13T02:17:37.629Z,10.74
2017-10-13T02:17:38.229Z,10.78
2017-10-13T02:17:38.829Z,10.78
2017-10-13T02:17:39.427Z,10.76
2017-10-13T02:17:40.037Z,10.73
2017-10-13T02:17:40.628Z,10.78
2017-10-13T02:17:41.228Z,10.78
2017-10-13T02:18:34.705Z,10.73
2017-10-13T02:18:35.282Z,10.80
2017-10-13T02:18:35.881Z,10.78
2017-10-13T02:18:36.480Z,10.76
2017-10-13T02:18:37.081Z,10.83
2017-10-13T02:18:37.682Z,10.71
2017-10-13T02:18:38.279Z,10.73
2017-10-13T02:18:38.881Z,10.74
2017-10-13T02:19:32.359Z,10.76
2017-10-13T02:19:32.933Z,10.80
2017-10-13T02:19:33.533Z,10.83
2017-10-13T02:19:34.132Z,10.91
2017-10-13T02:19:34.733Z,10.74
2017-10-13T02:19:35.333Z,10.89
2017-10-13T02:19:35.933Z,10.74
2017-10-13T02:19:36.533Z,10.80
2017-10-13T02:20:31.035Z,10.78
2017-10-13T02:20:31.611Z,10.86
2017-10-13T02:20:32.208Z,10.83
2017-10-13T02:20:32.807Z,10.76
2017-10-13T02:20:33.405Z,10.77
2017-10-13T02:20:34.009Z,10.80
2017-10-13T02:20:34.606Z,10.78
2017-10-13T02:20:35.205Z,10.74
2017-10-13T02:21:29.709Z,10.78
2017-10-13T02:21:30.282Z,10.86
2017-10-13T02:21:30.882Z,10.91
2017-10-13T02:21:31.481Z,10.76
2017-10-13T02:21:32.084Z,10.78
2017-10-13T02:21:32.683Z,10.80
2017-10-13T02:21:33.282Z,10.89
2017-10-13T02:21:33.881Z,10.83
2017-10-13T02:22:28.385Z,10.80
2017-10-13T02:22:28.958Z,10.77
2017-10-13T02:22:29.558Z,10.80
2017-10-13T02:22:30.157Z,10.80
2017-10-13T02:22:30.757Z,10.81
2017-10-13T02:22:31.357Z,10.81
2017-10-13T02:22:31.958Z,10.84
2017-10-13T02:22:32.558Z,10.84
2017-10-13T02:23:27.061Z,10.80
2017-10-13T02:23:27.635Z,10.86
2017-10-13T02:23:28.234Z,10.89
2017-10-13T02:23:28.833Z,10.84
2017-10-13T02:23:29.434Z,10.92
2017-10-13T02:23:30.034Z,10.91
2017-10-13T02:23:30.634Z,10.91
2017-10-13T02:23:31.232Z,10.88
2017-10-13T02:24:24.712Z,10.81
2017-10-13T02:24:25.292Z,10.86
2017-10-13T02:24:25.886Z,10.84
2017-10-13T02:24:26.486Z,10.86
2017-10-13T02:24:27.086Z,10.86
2017-10-13T02:24:27.685Z,10.92
2017-10-13T02:24:28.287Z,10.91
2017-10-13T02:24:28.886Z,10.86
2017-10-13T02:25:22.363Z,10.88
2017-10-13T02:25:22.938Z,10.91
2017-10-13T02:25:23.538Z,10.89
2017-10-13T02:25:24.138Z,10.88
2017-10-13T02:25:24.738Z,10.91
2017-10-13T02:25:25.343Z,10.92
2017-10-13T02:25:25.940Z,10.94
2017-10-13T02:25:26.537Z,10.92
2017-10-13T02:26:20.015Z,10.86
2017-10-13T02:26:20.594Z,10.96
2017-10-13T02:26:21.190Z,10.89
2017-10-13T02:26:21.789Z,10.88
2017-10-13T02:26:22.389Z,10.96
2017-10-13T02:26:22.989Z,10.91
2017-10-13T02:26:23.589Z,10.89
2017-10-13T02:26:24.189Z,10.92
2017-10-13T02:27:17.667Z,10.92
2017-10-13T02:27:18.244Z,10.91
2017-10-13T02:27:18.843Z,10.94
2017-10-13T02:27:19.448Z,10.99
2017-10-13T02:27:20.043Z,10.94
2017-10-13T02:27:20.644Z,10.95
2017-10-13T02:27:21.255Z,10.92
2017-10-13T02:27:21.842Z,10.96
2017-10-13T02:28:16.345Z,10.86
2017-10-13T02:28:16.916Z,10.89
2017-10-13T02:28:17.516Z,10.92
2017-10-13T02:28:18.116Z,10.92
2017-10-13T02:28:18.715Z,10.92
2017-10-13T02:28:19.316Z,10.96
2017-10-13T02:28:19.916Z,10.89
2017-10-13T02:28:20.515Z,10.94
2017-10-13T02:29:15.018Z,10.91
2017-10-13T02:29:15.591Z,10.88
2017-10-13T02:29:16.192Z,10.91
2017-10-13T02:29:16.792Z,10.94
2017-10-13T02:29:17.392Z,10.91
2017-10-13T02:29:17.991Z,10.91
2017-10-13T02:29:18.593Z,10.91
2017-10-13T02:29:19.192Z,10.91
2017-10-13T02:30:13.695Z,10.95
2017-10-13T02:30:14.267Z,10.88
2017-10-13T02:30:14.869Z,10.88
2017-10-13T02:30:15.467Z,10.96
2017-10-13T02:30:16.067Z,10.95
2017-10-13T02:30:16.667Z,10.91
2017-10-13T02:30:17.268Z,10.88
2017-10-13T02:30:17.868Z,10.91
2017-10-13T02:31:12.371Z,10.88
2017-10-13T02:31:12.945Z,10.92
2017-10-13T02:31:13.544Z,10.99
2017-10-13T02:31:14.143Z,10.98
2017-10-13T02:31:14.743Z,10.89
2017-10-13T02:31:15.342Z,10.91
2017-10-13T02:31:15.943Z,11.06
2017-10-13T02:31:16.542Z,10.98
2017-10-13T02:32:10.021Z,11.01
2017-10-13T02:32:10.597Z,10.96
2017-10-13T02:32:11.196Z,10.99
2017-10-13T02:32:11.796Z,11.03
2017-10-13T02:32:12.405Z,10.99
2017-10-13T02:32:12.996Z,11.01
2017-10-13T02:32:13.593Z,10.99
2017-10-13T02:32:14.193Z,10.95
2017-10-13T02:33:07.675Z,10.98
2017-10-13T02:33:09.235Z,10.98
2017-10-13T02:33:09.728Z,10.99
2017-10-13T02:33:10.329Z,10.96
2017-10-13T02:33:10.928Z,10.95
2017-10-13T02:33:11.530Z,11.01
2017-10-13T02:33:12.129Z,11.06
2017-10-13T02:51:00.929Z,10.62
2017-10-13T02:51:01.508Z,10.68
2017-10-13T02:51:02.104Z,10.65
2017-10-13T02:51:02.715Z,10.66
2017-10-13T02:51:03.309Z,10.68
2017-10-13T02:51:03.903Z,10.63
2017-10-13T02:51:04.502Z,10.73
2017-10-13T02:51:05.102Z,10.71
2017-10-13T02:51:59.606Z,10.62
2017-10-13T02:52:00.180Z,10.62
2017-10-13T02:52:00.781Z,10.56
2017-10-13T02:52:01.380Z,10.62
2017-10-13T02:52:01.983Z,10.60
2017-10-13T02:52:02.591Z,10.59
2017-10-13T02:52:03.182Z,10.60
2017-10-13T02:52:03.786Z,10.58
2017-10-13T02:52:58.287Z,10.59
2017-10-13T02:52:58.857Z,10.56
2017-10-13T02:53:00.309Z,10.60
2017-10-13T02:53:00.808Z,10.59
2017-10-13T02:53:01.407Z,10.60
2017-10-13T02:53:02.008Z,10.59
2017-10-13T02:53:02.608Z,10.60
2017-10-13T02:53:56.148Z,10.56
2017-10-13T02:53:56.716Z,10.56
2017-10-13T02:53:57.318Z,10.60
2017-10-13T02:53:57.914Z,10.60
2017-10-13T02:53:58.514Z,10.55
2017-10-13T02:53:59.115Z,10.55
2017-10-13T02:53:59.718Z,10.58
2017-10-13T02:54:00.314Z,10.59
2017-10-13T02:54:54.815Z,10.53
2017-10-13T02:54:55.391Z,10.43
2017-10-13T02:54:55.989Z,10.51
2017-10-13T02:54:56.588Z,10.47
2017-10-13T02:54:57.194Z,10.47
2017-10-13T02:54:57.788Z,10.44
2017-10-13T02:54:58.389Z,10.43
2017-10-13T02:54:58.990Z,10.51
2017-10-13T02:55:53.494Z,10.47
2017-10-13T02:55:54.066Z,10.47
2017-10-13T02:55:54.679Z,10.46
2017-10-13T02:55:55.266Z,10.37
2017-10-13T02:55:55.865Z,10.42
2017-10-13T02:55:56.467Z,10.46
2017-10-13T02:55:57.065Z,10.42
2017-10-13T02:55:57.665Z,10.44
2017-10-13T02:56:52.167Z,10.51
2017-10-13T02:56:52.743Z,10.44
2017-10-13T02:56:53.342Z,10.44
2017-10-13T02:56:53.941Z,10.44
2017-10-13T02:56:54.541Z,10.44
2017-10-13T02:56:55.145Z,10.44
2017-10-13T02:56:55.743Z,10.46
2017-10-13T02:56:56.341Z,10.51
2017-10-13T02:57:50.332Z,10.44
2017-10-13T02:57:50.909Z,10.46
2017-10-13T02:57:51.504Z,10.43
2017-10-13T02:57:52.104Z,10.46
2017-10-13T02:57:52.707Z,10.47
2017-10-13T02:57:53.305Z,10.42
2017-10-13T02:57:53.907Z,10.46
2017-10-13T02:58:47.369Z,10.36
2017-10-13T02:58:47.946Z,10.51
2017-10-13T02:58:48.543Z,10.40
2017-10-13T02:58:49.144Z,10.51
2017-10-13T02:58:49.743Z,10.40
2017-10-13T02:58:50.342Z,10.46
2017-10-13T02:58:50.943Z,10.51
2017-10-13T02:58:51.543Z,10.43
2017-10-13T02:59:45.023Z,10.39
2017-10-13T02:59:45.597Z,10.43
2017-10-13T02:59:46.197Z,10.42
2017-10-13T02:59:46.796Z,10.40
2017-10-13T02:59:47.397Z,10.39
2017-10-13T02:59:47.995Z,10.33
2017-10-13T02:59:48.595Z,10.42
2017-10-13T02:59:49.196Z,10.46
2017-10-13T03:00:43.697Z,10.42
2017-10-13T03:00:44.272Z,10.37
2017-10-13T03:00:44.870Z,10.39
2017-10-13T03:00:45.471Z,10.34
2017-10-13T03:00:46.070Z,10.39
2017-10-13T03:00:46.670Z,10.51
2017-10-13T03:00:47.269Z,10.37
2017-10-13T03:00:47.872Z,10.44
2017-10-13T03:01:41.349Z,10.28
2017-10-13T03:01:41.923Z,10.44
2017-10-13T03:01:42.529Z,10.36
2017-10-13T03:01:43.122Z,10.40
2017-10-13T03:01:43.735Z,10.44
2017-10-13T03:01:44.322Z,10.44
2017-10-13T03:01:44.922Z,10.44
2017-10-13T03:01:45.522Z,10.44
2017-10-13T03:02:39.001Z,10.40
2017-10-13T03:02:39.575Z,10.36
2017-10-13T03:02:40.175Z,10.39
2017-10-13T03:02:40.775Z,10.37
2017-10-13T03:02:41.374Z,10.36
2017-10-13T03:02:41.974Z,10.44
2017-10-13T03:02:42.573Z,10.37
2017-10-13T03:02:43.173Z,10.42
2017-10-13T03:03:36.651Z,10.36
2017-10-13T03:03:37.228Z,10.39
2017-10-13T03:03:37.827Z,10.40
2017-10-13T03:03:38.426Z,10.42
2017-10-13T03:03:39.027Z,10.42
2017-10-13T03:03:39.626Z,10.32
2017-10-13T03:03:40.229Z,10.40
2017-10-13T03:03:40.826Z,10.40
2017-10-13T03:04:35.329Z,10.37
2017-10-13T03:04:35.901Z,10.40
2017-10-13T03:04:36.504Z,10.40
2017-10-13T03:04:37.102Z,10.39
2017-10-13T03:04:37.701Z,10.37
2017-10-13T03:04:38.300Z,10.40
2017-10-13T03:04:38.901Z,10.42
2017-10-13T03:04:39.501Z,10.42
2017-10-13T03:05:32.979Z,10.40
2017-10-13T03:05:33.556Z,10.42
2017-10-13T03:05:34.155Z,10.42
2017-10-13T03:05:34.754Z,10.40
2017-10-13T03:05:35.354Z,10.40
2017-10-13T03:05:35.954Z,10.32
2017-10-13T03:05:36.559Z,10.42
2017-10-13T03:05:37.154Z,10.44
2017-10-13T03:06:31.657Z,10.34
2017-10-13T03:06:32.228Z,10.43
2017-10-13T03:06:32.828Z,10.44
2017-10-13T03:06:33.428Z,10.33
2017-10-13T03:06:34.028Z,10.30
2017-10-13T03:06:34.628Z,10.42
2017-10-13T03:06:35.229Z,10.33
2017-10-13T03:06:35.829Z,10.33
2017-10-13T03:07:29.311Z,10.42
2017-10-13T03:07:29.882Z,10.44
2017-10-13T03:07:30.483Z,10.42
2017-10-13T03:07:31.083Z,10.46
2017-10-13T03:07:31.687Z,10.40
2017-10-13T03:07:32.281Z,10.43
2017-10-13T03:07:32.882Z,10.44
2017-10-13T03:07:33.481Z,10.33
2017-10-13T03:08:26.961Z,10.40
2017-10-13T03:08:27.534Z,10.36
2017-10-13T03:08:28.135Z,10.39
2017-10-13T03:08:28.738Z,10.44
2017-10-13T03:08:29.334Z,10.43
2017-10-13T03:08:29.931Z,10.42
2017-10-13T03:08:30.534Z,10.42
2017-10-13T03:08:31.133Z,10.40
2017-10-13T03:09:25.635Z,10.40
2017-10-13T03:09:26.208Z,10.44
2017-10-13T03:09:26.808Z,10.42
2017-10-13T03:09:27.413Z,10.46
2017-10-13T03:09:28.024Z,10.42
2017-10-13T03:09:28.608Z,10.33
2017-10-13T03:09:29.208Z,10.42
2017-10-13T03:09:29.808Z,10.44
2017-10-13T03:10:24.311Z,10.37
2017-10-13T03:10:24.884Z,10.44
2017-10-13T03:10:25.484Z,10.36
2017-10-13T03:10:26.084Z,10.40
2017-10-13T03:10:26.684Z,10.44
2017-10-13T03:10:27.282Z,10.32
2017-10-13T03:10:27.883Z,10.46
2017-10-13T03:10:28.482Z,10.40
2017-10-13T03:11:22.985Z,10.44
2017-10-13T03:11:23.559Z,10.44
2017-10-13T03:11:24.158Z,10.36
2017-10-13T03:11:24.758Z,10.32
2017-10-13T03:11:25.361Z,10.40
2017-10-13T03:11:25.963Z,10.37
2017-10-13T03:11:26.560Z,10.34
2017-10-13T03:11:27.157Z,10.40
2017-10-13T03:12:21.660Z,10.39
2017-10-13T03:12:22.234Z,10.42
2017-10-13T03:12:22.836Z,10.39
2017-10-13T03:12:23.435Z,10.42
2017-10-13T03:12:24.035Z,10.42
2017-10-13T03:12:24.635Z,10.43
2017-10-13T03:12:25.234Z,10.42
2017-10-13T03:12:25.834Z,10.42
2017-10-13T03:13:20.337Z,10.36
2017-10-13T03:13:20.911Z,10.34
2017-10-13T03:13:21.510Z,10.36
2017-10-13T03:13:22.110Z,10.46
2017-10-13T03:13:22.711Z,10.39
2017-10-13T03:13:23.310Z,10.37
2017-10-13T03:13:23.909Z,10.43
2017-10-13T03:13:24.512Z,10.39
2017-10-13T03:14:17.989Z,10.36
2017-10-13T03:14:18.563Z,10.33
2017-10-13T03:14:19.164Z,10.32
2017-10-13T03:14:19.765Z,10.39
2017-10-13T03:14:20.364Z,10.34
2017-10-13T03:14:20.963Z,10.34
2017-10-13T03:14:21.563Z,10.34
2017-10-13T03:14:22.164Z,10.33
2017-10-13T03:15:15.642Z,10.34
2017-10-13T03:15:16.215Z,10.33
2017-10-13T03:15:16.818Z,10.34
2017-10-13T03:15:17.415Z,10.34
2017-10-13T03:15:18.015Z,10.37
2017-10-13T03:15:18.615Z,10.33
2017-10-13T03:15:19.215Z,10.37
2017-10-13T03:15:19.821Z,10.33
2017-10-13T03:16:13.292Z,10.34
2017-10-13T03:16:13.867Z,10.39
2017-10-13T03:16:14.468Z,10.39
2017-10-13T03:16:15.067Z,10.40
2017-10-13T03:16:15.665Z,10.32
2017-10-13T03:16:16.266Z,10.34
2017-10-13T03:16:16.866Z,10.33
2017-10-13T03:16:17.465Z,10.36
2017-10-13T03:17:10.943Z,10.33
2017-10-13T03:17:11.520Z,10.32
2017-10-13T03:17:12.121Z,10.26
2017-10-13T03:17:12.718Z,10.24
2017-10-13T03:17:13.318Z,10.33
2017-10-13T03:17:13.917Z,10.34
2017-10-13T03:17:14.519Z,10.34
2017-10-13T03:17:15.122Z,10.32
2017-10-13T03:18:09.620Z,10.15
2017-10-13T03:18:10.200Z,10.32
2017-10-13T03:18:10.793Z,10.39
2017-10-13T03:18:11.405Z,10.33
2017-10-13T03:18:11.993Z,10.33
2017-10-13T03:18:12.592Z,10.33
2017-10-13T03:18:13.193Z,10.30
2017-10-13T03:18:13.793Z,10.30
2017-10-13T03:19:07.270Z,10.36
2017-10-13T03:19:07.846Z,10.28
2017-10-13T03:19:08.489Z,10.36
2017-10-13T03:19:09.045Z,10.33
2017-10-13T03:19:09.645Z,10.33
2017-10-13T03:19:10.245Z,10.30
2017-10-13T03:19:10.845Z,10.37
2017-10-13T03:19:11.446Z,10.33
2017-10-13T03:20:05.948Z,10.34
2017-10-13T03:20:06.520Z,10.36
2017-10-13T03:20:07.120Z,10.34
2017-10-13T03:20:07.721Z,10.30
2017-10-13T03:20:08.320Z,10.36
2017-10-13T03:20:08.929Z,10.36
2017-10-13T03:20:09.520Z,10.34
2017-10-13T03:20:10.120Z,10.30
2017-10-13T03:21:03.607Z,10.26
2017-10-13T03:21:04.173Z,10.30
2017-10-13T03:21:04.780Z,10.32
2017-10-13T03:21:05.373Z,10.33
2017-10-13T03:21:05.977Z,10.34
2017-10-13T03:21:06.581Z,10.36
2017-10-13T03:21:07.175Z,10.32
2017-10-13T03:21:07.772Z,10.40
2017-10-13T03:22:02.275Z,10.33
2017-10-13T03:22:02.849Z,10.36
2017-10-13T03:22:03.448Z,10.30
2017-10-13T03:22:04.048Z,10.33
2017-10-13T03:22:04.647Z,10.32
2017-10-13T03:22:05.250Z,10.36
2017-10-13T03:22:05.848Z,10.26
2017-10-13T03:22:06.448Z,10.32
2017-10-13T03:22:59.926Z,10.33
2017-10-13T03:23:00.500Z,10.32
2017-10-13T03:23:01.099Z,10.28
2017-10-13T03:23:01.700Z,10.37
2017-10-13T03:23:02.300Z,10.33
2017-10-13T03:23:02.899Z,10.34
2017-10-13T03:23:03.498Z,10.30
2017-10-13T03:23:04.101Z,10.33
2017-10-13T03:23:58.602Z,10.33
2017-10-13T03:23:59.175Z,10.33
2017-10-13T03:23:59.779Z,10.30
2017-10-13T03:24:00.375Z,10.33
2017-10-13T03:24:00.975Z,10.28
2017-10-13T03:24:01.576Z,10.32
2017-10-13T03:24:02.178Z,10.30
2017-10-13T03:24:02.779Z,10.28
2017-10-13T03:24:56.778Z,10.30
2017-10-13T03:24:57.338Z,10.22
2017-10-13T03:24:57.939Z,10.30
2017-10-13T03:24:58.539Z,10.22
2017-10-13T03:24:59.139Z,10.30
2017-10-13T03:24:59.739Z,10.28
2017-10-13T03:25:00.337Z,10.33
2017-10-13T03:25:53.905Z,10.17
2017-10-13T03:25:54.481Z,10.30
2017-10-13T03:25:55.078Z,10.34
2017-10-13T03:25:55.681Z,10.33
2017-10-13T03:25:56.285Z,10.37
2017-10-13T03:25:56.879Z,10.33
2017-10-13T03:25:57.479Z,10.33
2017-10-13T03:25:58.082Z,10.36
2017-10-13T03:26:52.583Z,10.33
2017-10-13T03:26:53.154Z,10.36
2017-10-13T03:26:53.758Z,10.33
2017-10-13T03:26:54.356Z,10.34
2017-10-13T03:26:54.962Z,10.36
2017-10-13T03:26:55.554Z,10.32
2017-10-13T03:26:56.154Z,10.34
2017-10-13T03:26:56.753Z,10.37
2017-10-13T03:27:50.334Z,10.33
2017-10-13T03:27:50.909Z,10.34
2017-10-13T03:27:51.508Z,10.28